< < Back
Terminal Aerodrome Forecast


Current Version              Previous Versions:   1  2  3  4  5  6  7  8  9  

Terminal Aerodrome Forecast

806
FTUS42 KTAE 201700
TAFDHN
TAF
KDHN 201720Z 2018/2118 29007KT P6SM SCT040=

Latest METAR

207
SAUS70 KWBC 210200 RRH
MTRDHN
METAR KDHN 210153Z AUTO 24005KT 10SM CLR 26/22 A3012 RMK AO2 SLP195
T02610222


USA.gov is the U.S. government's official web portal to all federal, state and local government web resources and services.